createdAt,value
2024-02-19T00:04:08.981Z,100638.16
2024-02-19T00:14:11.472Z,100635.09
2024-02-19T00:24:14.112Z,100610.69
2024-02-19T00:34:16.788Z,100596.78
2024-02-19T00:44:19.373Z,100579.59
2024-02-19T00:54:21.974Z,100595.69
2024-02-19T01:04:24.504Z,100598.84
2024-02-19T01:14:27.255Z,100597.78
2024-02-19T01:24:29.714Z,100566.13
2024-02-19T01:34:32.428Z,100561.59
2024-02-19T01:44:37.902Z,100556.22
2024-02-19T01:54:41.005Z,100550.13
2024-02-19T02:04:43.618Z,100541.53
2024-02-19T02:14:46.105Z,100532.97
2024-02-19T02:24:48.624Z,100541.16
2024-02-19T02:34:51.357Z,100520.34
2024-02-19T02:44:53.865Z,100520.28
2024-02-19T02:54:56.422Z,100521.25
2024-02-19T03:04:59.091Z,100525.72
2024-02-19T03:15:01.746Z,100512.81
2024-02-19T03:25:05.966Z,100501.59
2024-02-19T03:35:11.441Z,100511.34
2024-02-19T03:45:14.176Z,100525.47
2024-02-19T03:55:16.670Z,100518.34
2024-02-19T04:05:19.175Z,100499.22
2024-02-19T04:15:21.695Z,100509.69
2024-02-19T04:25:25.154Z,100451.66
2024-02-19T04:35:27.758Z,100498.56
2024-02-19T04:45:30.876Z,100489.84
2024-02-19T04:55:33.607Z,100480.25
2024-02-19T05:05:36.784Z,100466.47
2024-02-19T05:15:39.325Z,100457.41
2024-02-19T05:25:41.839Z,100473.34
2024-02-19T05:35:44.989Z,100475.81
2024-02-19T05:45:47.500Z,100498.91
2024-02-19T05:55:50.103Z,100498.84
2024-02-19T06:05:53.016Z,100514.31
2024-02-19T06:15:55.678Z,100523.78
2024-02-19T06:25:58.416Z,100527.66
2024-02-19T06:36:01.036Z,100529.88
2024-02-19T06:46:04.087Z,100513.38
2024-02-19T06:56:09.256Z,100503.28
2024-02-19T07:06:11.951Z,100497.66
2024-02-19T07:16:14.691Z,100507.66
2024-02-19T07:26:17.279Z,100506.22
2024-02-19T07:36:20.099Z,100502.41
2024-02-19T07:46:23.516Z,100508.47
2024-02-19T07:56:26.198Z,100495.69
2024-02-19T08:06:29.863Z,100502.56
2024-02-19T08:16:32.593Z,100520.38
2024-02-19T08:26:35.638Z,100530.53
2024-02-19T08:36:38.796Z,100513.91
2024-02-19T08:46:41.565Z,100520.09
2024-02-19T08:56:45.337Z,100521.47
2024-02-19T09:06:48.067Z,100516.56
2024-02-19T09:16:50.749Z,100488.34
2024-02-19T09:26:54.186Z,100499.47
2024-02-19T09:36:56.743Z,100512.19
2024-02-19T09:47:05.381Z,100491.31
2024-02-19T09:57:11.700Z,100488.47
2024-02-19T10:07:20.862Z,100465.69
2024-02-19T10:17:25.998Z,100485.41
2024-02-19T10:27:32.209Z,100481.53
2024-02-19T10:37:37.015Z,100464.22
2024-02-19T10:47:40.650Z,100453.00
2024-02-19T10:57:54.120Z,100436.78
2024-02-19T11:07:58.966Z,100440.72
2024-02-19T11:18:17.563Z,100439.78
2024-02-19T11:28:20.306Z,100424.78
2024-02-19T11:38:23.797Z,100432.16
2024-02-19T11:48:29.129Z,100431.50
2024-02-19T11:58:32.958Z,100437.38
2024-02-19T12:08:43.742Z,100411.69
2024-02-19T12:18:47.475Z,100405.63
2024-02-19T12:28:50.796Z,100414.25
2024-02-19T12:38:54.136Z,100394.22
2024-02-19T12:48:59.982Z,100375.41
2024-02-19T12:59:03.102Z,100364.63
2024-02-19T13:09:07.178Z,100351.94
2024-02-19T13:19:10.004Z,100352.41
2024-02-19T13:29:12.914Z,100343.16
2024-02-19T13:39:16.865Z,100347.00
2024-02-19T13:49:20.732Z,100347.97
2024-02-19T13:59:25.349Z,100377.66
2024-02-19T14:09:28.316Z,100372.50
2024-02-19T14:19:31.174Z,100394.44
2024-02-19T14:29:33.811Z,100398.28
2024-02-19T14:39:37.144Z,100399.09
2024-02-19T14:49:40.854Z,100409.31
2024-02-19T14:59:43.802Z,100402.94
2024-02-19T15:09:47.733Z,100397.53
2024-02-19T15:19:50.543Z,100396.78
2024-02-19T15:29:54.746Z,100402.22
2024-02-19T15:39:57.385Z,100420.34
2024-02-19T15:50:01.140Z,100418.19
2024-02-19T16:10:12.620Z,100428.97
2024-02-19T16:20:15.776Z,100417.31
2024-02-19T16:30:18.366Z,100435.16
2024-02-19T16:40:26.481Z,100436.41
2024-02-19T16:50:29.307Z,100452.63
2024-02-19T17:00:32.103Z,100463.22
2024-02-19T17:10:35.833Z,100487.41
2024-02-19T17:20:39.902Z,100481.66
2024-02-19T17:30:44.488Z,100496.81
2024-02-19T17:40:47.080Z,100507.59
2024-02-19T17:50:51.872Z,100508.53
2024-02-19T18:00:54.471Z,100521.94
2024-02-19T18:10:58.759Z,100519.50
2024-02-19T18:21:01.944Z,100513.63
2024-02-19T18:31:06.674Z,100509.59
2024-02-19T18:41:10.145Z,100516.59
2024-02-19T18:51:12.747Z,100518.22
2024-02-19T19:01:15.387Z,100521.00
2024-02-19T19:11:18.771Z,100517.66
2024-02-19T19:21:21.612Z,100529.34
2024-02-19T19:31:24.435Z,100533.78
2024-02-19T19:41:27.111Z,100525.19
2024-02-19T19:51:29.680Z,100534.91
2024-02-19T20:01:36.175Z,100528.22
2024-02-19T20:11:38.796Z,100546.00
2024-02-19T20:21:41.421Z,100551.53
2024-02-19T20:31:43.926Z,100553.66
2024-02-19T20:41:46.510Z,100557.19
2024-02-19T20:51:49.141Z,100551.84
2024-02-19T21:01:51.938Z,100563.06
2024-02-19T21:11:54.568Z,100562.94
2024-02-19T21:21:57.332Z,100569.81
2024-02-19T21:31:59.875Z,100564.13
2024-02-19T21:42:02.463Z,100555.56
2024-02-19T21:52:05.210Z,100557.50
2024-02-19T22:02:07.738Z,100554.06
2024-02-19T22:12:10.262Z,100561.31
2024-02-19T22:22:12.693Z,100554.91
2024-02-19T22:32:15.212Z,100549.22
2024-02-19T22:42:17.671Z,100550.28
2024-02-19T22:52:20.369Z,100552.41
2024-02-19T23:02:22.834Z,100553.44
2024-02-19T23:12:25.303Z,100564.94
2024-02-19T23:22:28.068Z,100561.56
2024-02-19T23:32:30.962Z,100560.81
2024-02-19T23:42:33.792Z,100564.84
2024-02-19T23:52:36.823Z,100541.63
